createdAt,value
2022-07-29T00:01:43.645Z,2.45
2022-07-29T00:04:14.410Z,2.50
2022-07-29T00:06:43.533Z,2.30
2022-07-29T00:09:11.813Z,2.10
2022-07-29T00:11:40.059Z,2.13
2022-07-29T00:14:08.458Z,2.22
2022-07-29T00:16:37.014Z,2.50
2022-07-29T00:19:05.734Z,2.22
2022-07-29T00:21:37.946Z,2.33
2022-07-29T00:24:06.461Z,2.30
2022-07-29T00:26:34.939Z,2.72
2022-07-29T00:29:32.926Z,2.75
2022-07-29T00:31:53.316Z,3.47
2022-07-29T00:34:39.293Z,3.60
2022-07-29T00:37:08.896Z,3.45
2022-07-29T00:39:37.473Z,3.50
2022-07-29T00:42:06.446Z,3.47
2022-07-29T00:44:39.130Z,3.42
2022-07-29T00:47:07.966Z,3.07
2022-07-29T00:49:36.675Z,3.65
2022-07-29T00:52:05.656Z,3.25
2022-07-29T00:54:35.705Z,3.08
2022-07-29T00:57:08.518Z,2.85
2022-07-29T00:59:37.416Z,3.15
2022-07-29T01:02:06.048Z,2.83
2022-07-29T01:04:34.944Z,2.88
2022-07-29T01:07:04.264Z,2.90
2022-07-29T01:09:45.390Z,2.95
2022-07-29T01:12:17.416Z,2.33
2022-07-29T01:14:46.532Z,2.75
2022-07-29T01:17:20.296Z,2.90
2022-07-29T01:19:55.101Z,2.80
2022-07-29T01:22:43.236Z,3.10
2022-07-29T01:25:26.324Z,2.80
2022-07-29T01:28:52.420Z,3.13
2022-07-29T01:31:28.114Z,2.80
2022-07-29T01:34:04.906Z,3.13
2022-07-29T01:36:44.037Z,3.55
2022-07-29T01:39:16.404Z,3.90
2022-07-29T01:41:52.930Z,3.83
2022-07-29T01:44:29.117Z,4.35
2022-07-29T01:47:02.667Z,3.75
2022-07-29T01:52:11.148Z,3.85
2022-07-29T01:54:46.534Z,3.42
2022-07-29T01:57:19.419Z,3.42
2022-07-29T01:59:51.036Z,3.88
2022-07-29T02:02:21.988Z,3.80
2022-07-29T02:04:51.976Z,3.75
2022-07-29T02:07:23.171Z,4.20
2022-07-29T02:09:53.197Z,4.53
2022-07-29T02:12:22.700Z,4.45
2022-07-29T02:14:53.685Z,4.38
2022-07-29T02:17:27.173Z,4.25
2022-07-29T02:20:01.159Z,4.45
2022-07-29T02:22:31.640Z,4.20
2022-07-29T02:25:01.469Z,4.65
2022-07-29T02:27:44.199Z,4.45
2022-07-29T02:30:14.090Z,4.57
2022-07-29T02:32:45.504Z,4.28
2022-07-29T02:35:17.117Z,4.53
2022-07-29T02:38:06.951Z,4.72
2022-07-29T02:40:36.786Z,4.57
2022-07-29T02:43:07.905Z,4.53
2022-07-29T02:45:36.515Z,4.65
2022-07-29T02:48:11.038Z,4.82
2022-07-29T02:50:46.845Z,4.93
2022-07-29T02:53:20.038Z,4.60
2022-07-29T02:55:52.330Z,4.90
2022-07-29T02:58:32.305Z,4.90
2022-07-29T03:01:04.076Z,4.97
2022-07-29T03:03:40.490Z,4.55
2022-07-29T03:06:10.667Z,4.90
2022-07-29T03:09:01.354Z,4.65
2022-07-29T03:11:40.135Z,4.10
2022-07-29T03:14:21.058Z,4.55
2022-07-29T03:16:50.601Z,4.63
2022-07-29T03:19:21.543Z,4.40
2022-07-29T03:21:50.189Z,4.53
2022-07-29T03:24:32.295Z,4.55
2022-07-29T03:27:01.122Z,4.75
2022-07-29T03:29:33.781Z,4.10
2022-07-29T03:32:04.398Z,4.60
2022-07-29T03:34:41.524Z,4.50
2022-07-29T03:37:09.961Z,5.05
2022-07-29T03:39:42.835Z,5.07
2022-07-29T03:42:15.066Z,4.72
2022-07-29T03:44:45.455Z,4.88
2022-07-29T03:47:16.678Z,5.03
2022-07-29T03:49:50.263Z,4.80
2022-07-29T03:52:19.268Z,4.97
2022-07-29T03:54:47.760Z,4.40
2022-07-29T03:57:18.224Z,4.53
2022-07-29T03:59:47.577Z,4.85
2022-07-29T04:02:21.505Z,5.03
2022-07-29T04:04:52.584Z,4.97
2022-07-29T04:07:21.474Z,5.05
2022-07-29T04:09:49.625Z,5.85
2022-07-29T04:12:18.405Z,5.78
2022-07-29T04:17:42.474Z,5.82
2022-07-29T04:20:14.233Z,5.57
2022-07-29T04:22:42.689Z,6.57
2022-07-29T04:25:11.451Z,6.13
2022-07-29T04:28:00.150Z,6.65
2022-07-29T04:30:29.279Z,6.15
2022-07-29T04:32:59.405Z,5.95
2022-07-29T04:35:29.218Z,6.03
2022-07-29T04:37:58.401Z,6.25
2022-07-29T04:40:26.553Z,5.40
2022-07-29T04:42:54.968Z,5.20
2022-07-29T04:45:23.859Z,4.70
2022-07-29T04:47:52.069Z,4.93
2022-07-29T04:50:20.532Z,4.53
2022-07-29T04:52:50.277Z,4.50
2022-07-29T04:55:18.472Z,4.53
2022-07-29T04:57:46.844Z,4.15
2022-07-29T05:00:15.908Z,4.30
2022-07-29T05:02:44.300Z,4.63
2022-07-29T05:05:12.761Z,4.85
2022-07-29T05:07:43.897Z,4.47
2022-07-29T05:10:13.879Z,4.60
2022-07-29T05:12:42.033Z,4.43
2022-07-29T05:15:11.869Z,4.75
2022-07-29T05:17:40.129Z,4.13
2022-07-29T05:20:10.021Z,4.55
2022-07-29T05:22:38.685Z,4.57
2022-07-29T05:25:09.301Z,4.55
2022-07-29T05:27:39.428Z,4.20
2022-07-29T05:30:08.887Z,4.70
2022-07-29T05:32:37.158Z,4.80
2022-07-29T05:35:05.995Z,4.38
2022-07-29T05:37:36.873Z,4.10
2022-07-29T05:40:07.180Z,4.63
2022-07-29T05:42:35.755Z,4.63
2022-07-29T05:45:06.440Z,4.50
2022-07-29T05:47:35.265Z,4.53
2022-07-29T05:50:03.469Z,4.35
2022-07-29T05:52:31.694Z,4.32
2022-07-29T05:55:00.395Z,4.50
2022-07-29T05:57:28.747Z,4.00
2022-07-29T05:59:56.938Z,4.18
2022-07-29T06:02:26.966Z,4.72
2022-07-29T06:04:55.514Z,4.20
2022-07-29T06:07:23.688Z,5.03
2022-07-29T06:09:52.065Z,4.05
2022-07-29T06:12:20.798Z,4.32
2022-07-29T06:14:53.931Z,3.85
2022-07-29T06:19:52.170Z,3.33
2022-07-29T06:22:20.490Z,3.85
2022-07-29T06:24:48.833Z,3.90
2022-07-29T06:27:17.348Z,3.67
2022-07-29T06:29:45.645Z,4.13
2022-07-29T06:32:15.634Z,4.05
2022-07-29T06:34:43.918Z,3.83
2022-07-29T06:37:18.789Z,4.07
2022-07-29T06:39:47.471Z,4.30
2022-07-29T06:42:15.676Z,4.38
2022-07-29T06:44:44.311Z,4.32
2022-07-29T06:47:12.442Z,4.32
2022-07-29T06:49:40.882Z,3.55
2022-07-29T06:52:09.324Z,4.03
2022-07-29T06:54:39.870Z,3.83
2022-07-29T06:57:08.268Z,3.60
2022-07-29T06:59:36.868Z,3.90
2022-07-29T07:02:05.125Z,4.45
2022-07-29T07:04:34.412Z,3.95
2022-07-29T07:07:03.077Z,3.78
2022-07-29T07:09:40.111Z,4.47
2022-07-29T07:12:11.093Z,4.15
2022-07-29T07:14:40.999Z,3.75
2022-07-29T07:17:09.420Z,3.97
2022-07-29T07:19:38.134Z,3.90
2022-07-29T07:22:06.660Z,4.53
2022-07-29T07:24:34.890Z,4.25
2022-07-29T07:27:03.214Z,4.30
2022-07-29T07:29:32.955Z,3.58
2022-07-29T07:32:01.583Z,4.28
2022-07-29T07:34:31.346Z,4.20
2022-07-29T07:36:59.968Z,3.80
2022-07-29T07:39:28.339Z,4.30
2022-07-29T07:41:56.771Z,3.80
2022-07-29T07:44:24.886Z,3.80
2022-07-29T07:46:54.848Z,5.03
2022-07-29T07:49:23.611Z,3.38
2022-07-29T07:51:51.762Z,4.40
2022-07-29T07:54:20.355Z,3.80
2022-07-29T07:56:53.259Z,3.30
2022-07-29T07:59:21.685Z,3.97
2022-07-29T08:01:55.184Z,4.13
2022-07-29T08:04:28.513Z,4.15
2022-07-29T08:06:58.196Z,3.88
2022-07-29T08:09:29.880Z,4.65
2022-07-29T08:11:59.930Z,4.30
2022-07-29T08:14:28.089Z,3.38
2022-07-29T08:16:56.613Z,3.90
2022-07-29T08:19:26.283Z,3.50
2022-07-29T08:21:55.236Z,4.20
2022-07-29T08:24:41.712Z,4.10
2022-07-29T08:27:33.485Z,3.58
2022-07-29T08:29:58.603Z,4.15
2022-07-29T08:32:52.019Z,3.33
2022-07-29T08:35:16.549Z,3.38
2022-07-29T08:37:44.774Z,3.22
2022-07-29T08:40:13.623Z,4.22
2022-07-29T08:42:42.353Z,3.72
2022-07-29T08:45:11.811Z,3.35
2022-07-29T08:47:41.536Z,3.33
2022-07-29T08:50:10.776Z,3.53
2022-07-29T08:52:41.997Z,3.50
2022-07-29T08:55:12.161Z,3.70
2022-07-29T08:57:49.626Z,4.43
2022-07-29T09:00:24.419Z,3.70
2022-07-29T09:02:59.749Z,3.70
2022-07-29T09:05:29.330Z,3.67
2022-07-29T09:07:59.401Z,3.20
2022-07-29T09:10:27.709Z,3.38
2022-07-29T09:12:57.502Z,3.60
2022-07-29T09:15:25.944Z,3.42
2022-07-29T09:17:54.052Z,3.25
2022-07-29T09:20:24.284Z,3.55
2022-07-29T09:22:54.402Z,3.80
2022-07-29T09:25:37.348Z,3.75
2022-07-29T09:28:09.891Z,3.10
2022-07-29T09:30:41.387Z,4.20
2022-07-29T09:33:09.514Z,3.70
2022-07-29T09:35:37.647Z,3.55
2022-07-29T09:38:13.754Z,3.78
2022-07-29T09:40:43.382Z,4.10
2022-07-29T09:43:15.762Z,5.18
2022-07-29T09:45:44.047Z,5.43
2022-07-29T09:48:20.071Z,5.07
2022-07-29T09:50:50.683Z,6.07
2022-07-29T09:53:33.667Z,5.70
2022-07-29T09:56:03.518Z,6.55
2022-07-29T09:58:31.771Z,5.95
2022-07-29T10:01:00.465Z,5.40
2022-07-29T10:03:28.702Z,4.22
2022-07-29T10:06:08.994Z,4.18
2022-07-29T10:08:37.537Z,4.60
2022-07-29T10:11:15.341Z,4.30
2022-07-29T10:13:45.455Z,4.90
2022-07-29T10:16:15.146Z,4.40
2022-07-29T10:18:44.920Z,4.88
2022-07-29T10:21:22.577Z,4.70
2022-07-29T10:24:02.353Z,4.38
2022-07-29T10:26:32.599Z,4.53
2022-07-29T10:29:01.135Z,4.45
2022-07-29T10:31:38.919Z,4.20
2022-07-29T10:34:15.874Z,3.92
2022-07-29T10:36:57.124Z,5.13
2022-07-29T10:39:44.408Z,4.50
2022-07-29T10:42:33.629Z,4.28
2022-07-29T10:45:09.442Z,4.90
2022-07-29T10:47:37.719Z,4.90
2022-07-29T10:50:11.636Z,3.65
2022-07-29T10:53:08.969Z,4.93
2022-07-29T10:55:43.359Z,5.35
2022-07-29T10:58:19.147Z,5.45
2022-07-29T11:00:49.342Z,4.40
2022-07-29T11:03:49.185Z,4.15
2022-07-29T11:09:34.843Z,3.97
2022-07-29T11:12:26.817Z,4.60
2022-07-29T11:15:01.630Z,4.75
2022-07-29T11:17:37.572Z,5.03
2022-07-29T11:20:37.958Z,4.85
2022-07-29T11:23:21.161Z,3.28
2022-07-29T11:26:18.852Z,2.90
2022-07-29T11:29:04.718Z,2.80
2022-07-29T11:31:39.771Z,3.20
2022-07-29T11:34:23.262Z,3.45
2022-07-29T11:37:20.102Z,3.10
2022-07-29T11:40:21.356Z,3.97
2022-07-29T11:42:52.903Z,3.70
2022-07-29T11:45:41.397Z,3.85
2022-07-29T11:48:31.705Z,4.00
2022-07-29T11:51:03.089Z,3.35
2022-07-29T11:53:32.809Z,2.80
2022-07-29T11:56:03.407Z,3.33
2022-07-29T11:58:33.353Z,3.00
2022-07-29T12:01:04.801Z,2.95
2022-07-29T12:03:36.840Z,3.97
2022-07-29T12:06:17.470Z,3.60
2022-07-29T12:08:47.574Z,2.70
2022-07-29T12:11:21.774Z,2.90
2022-07-29T12:13:51.376Z,3.05
2022-07-29T12:16:29.216Z,3.42
2022-07-29T12:19:04.068Z,2.90
2022-07-29T12:21:45.729Z,2.58
2022-07-29T12:24:22.998Z,2.75
2022-07-29T12:26:56.901Z,2.25
2022-07-29T12:29:33.952Z,3.22
2022-07-29T12:32:14.259Z,2.95
2022-07-29T12:34:45.196Z,2.80
2022-07-29T12:37:13.859Z,2.20
2022-07-29T12:39:42.347Z,2.40
2022-07-29T12:42:18.801Z,2.17
2022-07-29T12:44:48.650Z,2.25
2022-07-29T12:47:17.784Z,2.10
2022-07-29T12:49:47.979Z,2.38
2022-07-29T12:52:30.480Z,2.05
2022-07-29T12:54:59.036Z,2.00
2022-07-29T12:57:27.567Z,1.92
2022-07-29T13:00:05.470Z,1.90
2022-07-29T13:02:33.892Z,2.22
2022-07-29T13:05:05.150Z,2.00
2022-07-29T13:07:54.581Z,1.80
2022-07-29T13:10:25.079Z,1.88
2022-07-29T13:13:09.228Z,2.00
2022-07-29T13:15:38.015Z,1.77
2022-07-29T13:18:07.178Z,1.48
2022-07-29T13:20:37.469Z,1.67
2022-07-29T13:23:05.985Z,1.65
2022-07-29T13:25:35.381Z,1.90
2022-07-29T13:28:04.158Z,1.67
2022-07-29T13:30:32.309Z,1.92
2022-07-29T13:33:00.637Z,1.92
2022-07-29T13:35:30.948Z,1.95
2022-07-29T13:38:00.975Z,2.00
2022-07-29T13:40:30.153Z,1.67
2022-07-29T13:42:58.529Z,1.88
2022-07-29T13:45:29.306Z,2.03
2022-07-29T13:47:57.760Z,1.40
2022-07-29T13:50:26.161Z,1.90
2022-07-29T13:52:54.532Z,1.80
2022-07-29T13:55:24.859Z,1.48
2022-07-29T13:57:53.279Z,1.85
2022-07-29T14:00:21.728Z,1.48
2022-07-29T14:02:50.047Z,1.70
2022-07-29T14:05:18.381Z,1.80
2022-07-29T14:07:46.540Z,1.63
2022-07-29T14:10:19.718Z,1.70
2022-07-29T14:12:50.071Z,1.70
2022-07-29T14:15:18.449Z,1.50
2022-07-29T14:17:46.635Z,1.90
2022-07-29T14:20:17.180Z,1.83
2022-07-29T14:22:45.841Z,1.90
2022-07-29T14:25:15.519Z,1.90
2022-07-29T14:27:44.839Z,2.00
2022-07-29T14:30:15.356Z,1.60
2022-07-29T14:32:43.783Z,1.88
2022-07-29T14:35:12.484Z,2.00
2022-07-29T14:37:41.332Z,1.60
2022-07-29T14:40:10.768Z,1.80
2022-07-29T14:42:39.414Z,2.17
2022-07-29T14:45:09.667Z,1.67
2022-07-29T14:47:39.926Z,1.50
2022-07-29T14:50:09.277Z,1.70
2022-07-29T14:52:37.353Z,2.20
2022-07-29T14:55:16.445Z,1.73
2022-07-29T14:57:48.692Z,1.75
2022-07-29T15:00:17.368Z,1.77
2022-07-29T15:03:01.566Z,1.65
2022-07-29T15:05:31.154Z,2.00
2022-07-29T15:07:59.789Z,2.00
2022-07-29T15:10:28.345Z,2.10
2022-07-29T15:12:58.560Z,1.90
2022-07-29T15:15:27.301Z,1.90
2022-07-29T15:17:57.044Z,1.55
2022-07-29T15:20:26.466Z,1.73
2022-07-29T15:22:56.408Z,1.83
2022-07-29T15:25:25.293Z,2.20
2022-07-29T15:27:55.655Z,2.10
2022-07-29T15:30:33.894Z,1.88
2022-07-29T15:33:05.176Z,2.03
2022-07-29T15:35:33.601Z,1.88
2022-07-29T15:38:09.444Z,1.50
2022-07-29T15:40:39.857Z,1.75
2022-07-29T15:43:07.988Z,1.88
2022-07-29T15:45:40.998Z,2.00
2022-07-29T15:48:14.785Z,1.73
2022-07-29T15:50:47.146Z,2.03
2022-07-29T15:53:15.649Z,1.80
2022-07-29T15:55:44.513Z,1.75
2022-07-29T15:58:13.065Z,2.03
2022-07-29T16:00:41.427Z,1.90
2022-07-29T16:03:11.345Z,1.80
2022-07-29T16:05:39.979Z,1.88
2022-07-29T16:08:08.159Z,1.70
2022-07-29T16:10:39.266Z,1.70
2022-07-29T16:13:07.622Z,1.70
2022-07-29T16:15:35.832Z,2.03
2022-07-29T16:18:04.336Z,1.80
2022-07-29T16:20:34.541Z,1.70
2022-07-29T16:23:02.671Z,1.83
2022-07-29T16:25:57.605Z,1.92
2022-07-29T16:28:19.627Z,2.33
2022-07-29T16:30:47.884Z,1.75
2022-07-29T16:33:16.149Z,1.67
2022-07-29T16:35:46.165Z,2.10
2022-07-29T16:38:14.269Z,2.13
2022-07-29T16:40:42.500Z,1.85
2022-07-29T16:43:11.308Z,2.38
2022-07-29T16:45:46.481Z,2.20
2022-07-29T16:48:15.258Z,2.13
2022-07-29T16:50:47.976Z,2.45
2022-07-29T16:53:16.554Z,2.58
2022-07-29T16:55:44.689Z,2.28
2022-07-29T16:58:13.642Z,2.38
2022-07-29T17:00:42.406Z,2.70
2022-07-29T17:03:10.955Z,2.25
2022-07-29T17:05:52.594Z,2.22
2022-07-29T17:08:24.355Z,2.40
2022-07-29T17:10:52.834Z,2.05
2022-07-29T17:13:21.401Z,2.28
2022-07-29T17:15:50.185Z,2.20
2022-07-29T17:18:18.880Z,2.17
2022-07-29T17:20:47.125Z,2.17
2022-07-29T17:23:15.874Z,3.05
2022-07-29T17:25:45.663Z,2.70
2022-07-29T17:28:13.835Z,2.67
2022-07-29T17:30:42.286Z,2.72
2022-07-29T17:33:10.697Z,2.40
2022-07-29T17:35:56.521Z,2.53
2022-07-29T17:38:24.860Z,2.30
2022-07-29T17:40:54.862Z,2.63
2022-07-29T17:43:23.562Z,2.50
2022-07-29T17:45:56.816Z,2.50
2022-07-29T17:48:28.886Z,2.30
2022-07-29T17:50:58.045Z,2.70
2022-07-29T17:53:26.299Z,2.80
2022-07-29T17:55:58.191Z,2.25
2022-07-29T17:58:27.016Z,2.60
2022-07-29T18:00:55.593Z,2.70
2022-07-29T18:03:24.260Z,2.45
2022-07-29T18:05:52.483Z,2.67
2022-07-29T18:08:21.405Z,2.60
2022-07-29T18:10:49.861Z,2.50
2022-07-29T18:13:20.169Z,2.75
2022-07-29T18:15:49.043Z,2.22
2022-07-29T18:18:18.602Z,2.40
2022-07-29T18:20:47.257Z,2.85
2022-07-29T18:23:16.885Z,2.45
2022-07-29T18:25:45.309Z,1.92
2022-07-29T18:28:13.672Z,2.33
2022-07-29T18:30:43.628Z,2.75
2022-07-29T18:33:22.862Z,2.20
2022-07-29T18:36:06.083Z,2.20
2022-07-29T18:38:39.921Z,2.00
2022-07-29T18:41:08.361Z,2.47
2022-07-29T18:43:37.629Z,2.33
2022-07-29T18:46:07.702Z,1.98
2022-07-29T18:48:35.976Z,2.15
2022-07-29T18:51:09.449Z,2.10
2022-07-29T18:53:38.199Z,2.63
2022-07-29T18:56:06.883Z,2.50
2022-07-29T18:58:37.150Z,2.40
2022-07-29T19:01:07.791Z,2.40
2022-07-29T19:03:36.160Z,2.45
2022-07-29T19:06:04.435Z,2.60
2022-07-29T19:08:33.663Z,2.80
2022-07-29T19:11:01.822Z,2.38
2022-07-29T19:13:31.035Z,2.85
2022-07-29T19:15:59.809Z,2.28
2022-07-29T19:18:29.546Z,2.60
2022-07-29T19:20:57.810Z,2.38
2022-07-29T19:23:26.165Z,2.50
2022-07-29T19:25:54.475Z,2.55
2022-07-29T19:28:22.776Z,2.33
2022-07-29T19:30:51.367Z,2.42
2022-07-29T19:33:20.541Z,2.13
2022-07-29T19:35:54.558Z,2.10
2022-07-29T19:38:23.739Z,2.28
2022-07-29T19:40:53.383Z,2.13
2022-07-29T19:43:49.970Z,2.20
2022-07-29T19:46:10.065Z,2.10
2022-07-29T19:48:38.299Z,2.30
2022-07-29T19:51:08.024Z,2.38
2022-07-29T19:53:36.294Z,2.33
2022-07-29T19:56:04.811Z,2.03
2022-07-29T19:58:33.794Z,2.83
2022-07-29T20:01:03.177Z,2.40
2022-07-29T20:03:39.827Z,2.45
2022-07-29T20:06:10.263Z,2.30
2022-07-29T20:08:38.532Z,2.50
2022-07-29T20:11:07.105Z,2.78
2022-07-29T20:13:36.128Z,2.67
2022-07-29T20:16:06.527Z,2.10
2022-07-29T20:18:34.881Z,2.67
2022-07-29T20:21:04.900Z,2.85
2022-07-29T20:23:34.990Z,2.50
2022-07-29T20:26:06.116Z,2.70
2022-07-29T20:28:37.539Z,2.72
2022-07-29T20:31:05.755Z,2.85
2022-07-29T20:33:33.937Z,2.88
2022-07-29T20:36:02.684Z,3.15
2022-07-29T20:38:30.884Z,3.00
2022-07-29T20:41:00.680Z,3.45
2022-07-29T20:43:29.012Z,3.05
2022-07-29T20:45:57.250Z,3.10
2022-07-29T20:48:25.522Z,3.50
2022-07-29T20:50:55.326Z,3.72
2022-07-29T20:53:24.270Z,3.30
2022-07-29T20:55:53.002Z,3.20
2022-07-29T20:58:23.444Z,3.20
2022-07-29T21:00:51.731Z,3.70
2022-07-29T21:03:20.007Z,3.92
2022-07-29T21:05:48.499Z,3.50
2022-07-29T21:08:16.644Z,3.75
2022-07-29T21:10:45.802Z,4.18
2022-07-29T21:13:15.893Z,3.80
2022-07-29T21:15:49.252Z,3.83
2022-07-29T21:18:27.520Z,3.45
2022-07-29T21:20:56.014Z,3.22
2022-07-29T21:23:24.447Z,3.92
2022-07-29T21:25:53.116Z,3.38
2022-07-29T21:28:37.042Z,3.42
2022-07-29T21:33:36.509Z,3.38
2022-07-29T21:36:27.084Z,3.10
2022-07-29T21:38:55.904Z,3.25
2022-07-29T21:41:24.363Z,3.88
2022-07-29T21:43:52.707Z,3.63
2022-07-29T21:46:24.728Z,3.75
2022-07-29T21:48:53.019Z,3.75
2022-07-29T21:51:21.230Z,4.13
2022-07-29T21:53:53.045Z,4.30
2022-07-29T21:56:22.568Z,4.10
2022-07-29T21:58:56.329Z,4.20
2022-07-29T22:01:26.225Z,4.43
2022-07-29T22:03:54.539Z,3.88
2022-07-29T22:06:23.490Z,4.05
2022-07-29T22:08:52.034Z,3.95
2022-07-29T22:11:20.610Z,4.40
2022-07-29T22:13:49.004Z,4.53
2022-07-29T22:16:17.725Z,5.05
2022-07-29T22:18:48.396Z,4.80
2022-07-29T22:21:17.103Z,4.75
2022-07-29T22:23:45.343Z,5.03
2022-07-29T22:26:14.069Z,4.55
2022-07-29T22:28:42.457Z,4.60
2022-07-29T22:31:10.840Z,4.75
2022-07-29T22:33:39.158Z,4.95
2022-07-29T22:36:09.725Z,4.60
2022-07-29T22:38:37.883Z,4.43
2022-07-29T22:41:06.140Z,4.80
2022-07-29T22:43:34.792Z,5.18
2022-07-29T22:46:03.129Z,4.40
2022-07-29T22:48:31.380Z,5.18
2022-07-29T22:51:00.169Z,5.15
2022-07-29T22:53:29.882Z,4.53
2022-07-29T22:55:58.074Z,5.18
2022-07-29T22:58:26.772Z,5.07
2022-07-29T23:00:55.124Z,5.72
2022-07-29T23:03:24.291Z,5.03
2022-07-29T23:05:52.866Z,5.25
2022-07-29T23:08:21.644Z,5.53
2022-07-29T23:10:51.302Z,5.80
2022-07-29T23:13:19.573Z,6.50
2022-07-29T23:15:48.413Z,6.45
2022-07-29T23:18:17.423Z,6.18
2022-07-29T23:20:46.074Z,5.63
2022-07-29T23:23:14.436Z,5.68
2022-07-29T23:25:43.120Z,4.93
2022-07-29T23:28:13.265Z,5.55
2022-07-29T23:30:43.367Z,5.25
2022-07-29T23:33:11.847Z,6.07
2022-07-29T23:35:40.260Z,5.20
2022-07-29T23:38:08.495Z,5.60
2022-07-29T23:40:36.976Z,4.75
2022-07-29T23:43:08.857Z,5.18
2022-07-29T23:45:44.631Z,5.35
2022-07-29T23:48:14.753Z,5.25
2022-07-29T23:50:43.140Z,5.45
2022-07-29T23:53:12.225Z,5.50
2022-07-29T23:55:40.850Z,5.30
2022-07-29T23:58:09.420Z,6.13
